Airfield :
LOGIN :

Register | Disclaimer

   EN    FR    IT 

 










Legend :    VFR   Marginal VFR   IFR   Intensive IFR   Very Intensive IFR
Visi :
Ceiling :
>= 8 km
>= 3000ft
5 to 8 km
1000 to 3000 ft
1500m to 5 km
500 to 1000 ft
800 to 1500m
200 to 500 ft
< 800m
< 200 ft
Symbols :   Thunderstorms  Fog  Heavy snow  Heavy precipitations  Wind > 20 kt
SIGMETs :     Misc.  Thunderstorms  Icing  Turbulence  Mountain Waves  Volcanic Ashes






- Airport Elevation : 3125 ft
- IATA code : ESB


LTAC - Ankara Esenboga

CURRENT METAR :
  • 251550Z 25004KT CAVOK 06/M10 Q1017 NOSIG RMK RWY21L 24006KT RWY03L 26003KT RWY21R 27003KT

EXPIRED METARs :
  • 251520Z 25005KT CAVOK 07/M10 Q1017 NOSIG RMK RWY21L 24005KT RWY03L 25003KT RWY21R 26006KT
  • 251450Z 24006KT CAVOK 08/M11 Q1017 NOSIG RMK RWY21L 18005KT 150V230 RWY03L 24005KT 210V270 RWY21R 23006KT
  • 251420Z 21004KT CAVOK 08/M18 Q1017 NOSIG RMK RWY21L 20005KT 150V220 RWY03L 20004KT 160V260 RWY21R 22005KT 180V260
  • 251350Z 19005KT CAVOK 09/M17 Q1017 NOSIG RMK RWY21L 22005KT 150V270 RWY03L 24003KT 170V310 RWY21R 28003KT 230V320
  • 251320Z 17004KT CAVOK 08/M15 Q1017 NOSIG

TAF TAF LTAC
Valid from the 25 at 12:00 until the 26 at 12:00 UTC


251040Z 2512/2612 VRB02KT CAVOK
BECMG 2602/2604 SCT040



MET'MAP, your aeronautical weather chart ! - Copyright ORBIFLY December 2007 - Disclaimer

ORBIFLY MET'MAP TEAM :

Programming & Development : Alexandra Zaïnal
Concept & original design : Baudouin d'Aumeries
Assistance for programming : Marc-Olivier Méhu
Technical & hardware support : Manuel Goepfert

Contact : metmap@orbifly.com




SOURCES & CREDITS :

   NOAA